Terminal Aerodrome Forecast
Issued by NWS

Home | Current Version | Previous Version | Text Only | Print | Product List | Glossary On
Versions: 1 2 3 4 5 6 7 8 9 10 11 12 13 14 15
382
FTUS41 KCAR 212320
TAFFVE
TAF
KFVE 212320Z 2200/2224 36006KT P6SM SCT250
     FM221000 09004KT P6SM BKN250
     FM221500 12005KT P6SM SCT060 BKN200=

USA.gov is the U.S. government's official web portal to all federal, state and local government web resources and services.